sensor_id;sensor_type;location;lat;lon;timestamp;P1;durP1;ratioP1;P2;durP2;ratioP2
1206;SDS011;593;53.184;8.216;2022-10-28T00:01:58;4.97;;;4.47;;
1206;SDS011;593;53.184;8.216;2022-10-28T00:04:23;4.77;;;4.33;;
1206;SDS011;593;53.184;8.216;2022-10-28T00:06:49;4.07;;;3.67;;
1206;SDS011;593;53.184;8.216;2022-10-28T00:09:14;7.50;;;4.47;;
1206;SDS011;593;53.184;8.216;2022-10-28T00:11:39;5.53;;;4.40;;
1206;SDS011;593;53.184;8.216;2022-10-28T00:14:05;5.50;;;4.93;;
1206;SDS011;593;53.184;8.216;2022-10-28T00:16:32;5.97;;;5.37;;
1206;SDS011;593;53.184;8.216;2022-10-28T00:18:59;5.57;;;5.00;;
1206;SDS011;593;53.184;8.216;2022-10-28T00:21:27;5.20;;;4.70;;
1206;SDS011;593;53.184;8.216;2022-10-28T00:23:54;6.27;;;4.63;;
1206;SDS011;593;53.184;8.216;2022-10-28T00:26:22;8.13;;;5.60;;
1206;SDS011;593;53.184;8.216;2022-10-28T00:28:51;6.80;;;5.17;;
1206;SDS011;593;53.184;8.216;2022-10-28T00:31:19;11.73;;;5.47;;
1206;SDS011;593;53.184;8.216;2022-10-28T00:33:46;5.70;;;5.20;;
1206;SDS011;593;53.184;8.216;2022-10-28T00:36:14;5.10;;;4.10;;
1206;SDS011;593;53.184;8.216;2022-10-28T00:38:39;12.20;;;5.43;;
1206;SDS011;593;53.184;8.216;2022-10-28T00:41:06;9.63;;;5.57;;
1206;SDS011;593;53.184;8.216;2022-10-28T00:43:41;6.10;;;4.97;;
1206;SDS011;593;53.184;8.216;2022-10-28T00:49:01;8.00;;;5.77;;
1206;SDS011;593;53.184;8.216;2022-10-28T00:51:34;5.43;;;4.77;;
1206;SDS011;593;53.184;8.216;2022-10-28T00:54:01;5.50;;;4.90;;
1206;SDS011;593;53.184;8.216;2022-10-28T00:56:31;8.17;;;4.80;;
1206;SDS011;593;53.184;8.216;2022-10-28T00:59:02;4.90;;;4.00;;
1206;SDS011;593;53.184;8.216;2022-10-28T01:01:32;5.10;;;4.70;;
1206;SDS011;593;53.184;8.216;2022-10-28T01:03:57;8.30;;;4.57;;
1206;SDS011;593;53.184;8.216;2022-10-28T01:06:23;7.77;;;4.70;;
1206;SDS011;593;53.184;8.216;2022-10-28T01:08:50;6.30;;;4.73;;
1206;SDS011;593;53.184;8.216;2022-10-28T01:11:23;7.63;;;4.90;;
1206;SDS011;593;53.184;8.216;2022-10-28T01:14:07;8.00;;;5.30;;
1206;SDS011;593;53.184;8.216;2022-10-28T01:23:04;5.93;;;4.80;;
1206;SDS011;593;53.184;8.216;2022-10-28T01:32:15;5.13;;;3.77;;
1206;SDS011;593;53.184;8.216;2022-10-28T01:37:17;9.17;;;4.50;;
1206;SDS011;593;53.184;8.216;2022-10-28T01:39:52;5.17;;;4.67;;
1206;SDS011;593;53.184;8.216;2022-10-28T01:47:49;7.80;;;4.13;;
1206;SDS011;593;53.184;8.216;2022-10-28T01:50:26;5.13;;;4.40;;
1206;SDS011;593;53.184;8.216;2022-10-28T01:53:08;5.53;;;4.83;;
1206;SDS011;593;53.184;8.216;2022-10-28T01:55:39;5.37;;;4.30;;
1206;SDS011;593;53.184;8.216;2022-10-28T01:58:08;7.00;;;4.80;;
1206;SDS011;593;53.184;8.216;2022-10-28T02:00:37;8.33;;;5.60;;
1206;SDS011;593;53.184;8.216;2022-10-28T02:03:07;5.73;;;4.87;;
1206;SDS011;593;53.184;8.216;2022-10-28T02:08:06;7.67;;;4.93;;
1206;SDS011;593;53.184;8.216;2022-10-28T02:10:46;7.37;;;5.10;;
1206;SDS011;593;53.184;8.216;2022-10-28T02:16:11;5.17;;;4.73;;
1206;SDS011;593;53.184;8.216;2022-10-28T02:22:12;6.53;;;5.40;;
1206;SDS011;593;53.184;8.216;2022-10-28T02:24:45;6.17;;;5.63;;
1206;SDS011;593;53.184;8.216;2022-10-28T02:27:11;6.60;;;5.10;;
1206;SDS011;593;53.184;8.216;2022-10-28T02:29:46;9.50;;;5.57;;
1206;SDS011;593;53.184;8.216;2022-10-28T02:32:24;6.27;;;5.77;;
1206;SDS011;593;53.184;8.216;2022-10-28T02:34:54;6.87;;;5.87;;
1206;SDS011;593;53.184;8.216;2022-10-28T02:37:31;6.57;;;5.13;;
1206;SDS011;593;53.184;8.216;2022-10-28T02:40:01;6.73;;;5.43;;
1206;SDS011;593;53.184;8.216;2022-10-28T02:42:39;6.43;;;5.10;;
1206;SDS011;593;53.184;8.216;2022-10-28T02:45:17;8.07;;;5.00;;
1206;SDS011;593;53.184;8.216;2022-10-28T02:50:41;7.80;;;6.10;;
1206;SDS011;593;53.184;8.216;2022-10-28T02:53:12;6.10;;;5.50;;
1206;SDS011;593;53.184;8.216;2022-10-28T02:55:43;8.30;;;6.20;;
1206;SDS011;593;53.184;8.216;2022-10-28T02:58:11;6.70;;;5.47;;
1206;SDS011;593;53.184;8.216;2022-10-28T03:00:36;7.10;;;6.20;;
1206;SDS011;593;53.184;8.216;2022-10-28T03:03:02;9.43;;;5.73;;
1206;SDS011;593;53.184;8.216;2022-10-28T03:05:28;9.90;;;6.00;;
1206;SDS011;593;53.184;8.216;2022-10-28T03:07:53;8.40;;;6.47;;
1206;SDS011;593;53.184;8.216;2022-10-28T03:10:18;8.77;;;6.57;;
1206;SDS011;593;53.184;8.216;2022-10-28T03:12:44;8.80;;;6.40;;
1206;SDS011;593;53.184;8.216;2022-10-28T03:15:09;10.77;;;6.57;;
1206;SDS011;593;53.184;8.216;2022-10-28T03:17:35;7.73;;;6.93;;
1206;SDS011;593;53.184;8.216;2022-10-28T03:20:00;8.90;;;6.53;;
1206;SDS011;593;53.184;8.216;2022-10-28T03:22:25;7.83;;;6.57;;
1206;SDS011;593;53.184;8.216;2022-10-28T03:24:51;6.30;;;5.63;;
1206;SDS011;593;53.184;8.216;2022-10-28T03:27:16;7.10;;;6.33;;
1206;SDS011;593;53.184;8.216;2022-10-28T03:29:41;7.67;;;6.13;;
1206;SDS011;593;53.184;8.216;2022-10-28T03:32:07;9.50;;;5.80;;
1206;SDS011;593;53.184;8.216;2022-10-28T03:34:32;6.20;;;5.70;;
1206;SDS011;593;53.184;8.216;2022-10-28T03:36:57;6.07;;;5.50;;
1206;SDS011;593;53.184;8.216;2022-10-28T03:39:23;6.70;;;6.03;;
1206;SDS011;593;53.184;8.216;2022-10-28T03:41:48;7.70;;;5.90;;
1206;SDS011;593;53.184;8.216;2022-10-28T03:44:13;9.10;;;6.20;;
1206;SDS011;593;53.184;8.216;2022-10-28T03:46:39;6.60;;;6.00;;
1206;SDS011;593;53.184;8.216;2022-10-28T03:49:04;5.57;;;5.00;;
1206;SDS011;593;53.184;8.216;2022-10-28T03:51:29;9.20;;;5.03;;
1206;SDS011;593;53.184;8.216;2022-10-28T03:53:55;7.03;;;6.40;;
1206;SDS011;593;53.184;8.216;2022-10-28T03:56:20;6.37;;;5.80;;
1206;SDS011;593;53.184;8.216;2022-10-28T03:58:46;8.23;;;6.27;;
1206;SDS011;593;53.184;8.216;2022-10-28T04:01:12;8.87;;;6.07;;
1206;SDS011;593;53.184;8.216;2022-10-28T04:03:37;8.57;;;5.50;;
1206;SDS011;593;53.184;8.216;2022-10-28T04:06:03;10.50;;;5.47;;
1206;SDS011;593;53.184;8.216;2022-10-28T04:08:29;7.30;;;5.87;;
1206;SDS011;593;53.184;8.216;2022-10-28T04:10:54;6.83;;;5.87;;
1206;SDS011;593;53.184;8.216;2022-10-28T04:13:20;7.80;;;6.20;;
1206;SDS011;593;53.184;8.216;2022-10-28T04:15:45;6.80;;;5.77;;
1206;SDS011;593;53.184;8.216;2022-10-28T04:18:10;7.40;;;5.17;;
1206;SDS011;593;53.184;8.216;2022-10-28T04:20:36;6.80;;;6.10;;
1206;SDS011;593;53.184;8.216;2022-10-28T04:23:01;7.27;;;6.53;;
1206;SDS011;593;53.184;8.216;2022-10-28T04:25:27;10.40;;;7.17;;
1206;SDS011;593;53.184;8.216;2022-10-28T04:27:52;5.83;;;5.30;;
1206;SDS011;593;53.184;8.216;2022-10-28T04:30:18;5.33;;;4.87;;
1206;SDS011;593;53.184;8.216;2022-10-28T04:32:44;6.97;;;6.20;;
1206;SDS011;593;53.184;8.216;2022-10-28T04:35:10;6.60;;;5.37;;
1206;SDS011;593;53.184;8.216;2022-10-28T04:37:37;5.33;;;4.83;;
1206;SDS011;593;53.184;8.216;2022-10-28T04:40:04;6.00;;;5.50;;
1206;SDS011;593;53.184;8.216;2022-10-28T04:42:30;7.23;;;5.80;;
1206;SDS011;593;53.184;8.216;2022-10-28T04:44:55;9.93;;;5.57;;
1206;SDS011;593;53.184;8.216;2022-10-28T04:47:20;9.97;;;6.57;;
1206;SDS011;593;53.184;8.216;2022-10-28T04:49:46;9.63;;;6.40;;
1206;SDS011;593;53.184;8.216;2022-10-28T04:52:11;6.07;;;5.53;;
1206;SDS011;593;53.184;8.216;2022-10-28T04:54:37;8.23;;;6.47;;
1206;SDS011;593;53.184;8.216;2022-10-28T04:57:02;7.10;;;6.30;;
1206;SDS011;593;53.184;8.216;2022-10-28T04:59:28;6.50;;;5.73;;
1206;SDS011;593;53.184;8.216;2022-10-28T05:01:53;7.53;;;6.50;;
1206;SDS011;593;53.184;8.216;2022-10-28T05:04:18;10.80;;;5.90;;
1206;SDS011;593;53.184;8.216;2022-10-28T05:06:44;7.97;;;5.90;;
1206;SDS011;593;53.184;8.216;2022-10-28T05:09:09;8.10;;;6.30;;
1206;SDS011;593;53.184;8.216;2022-10-28T05:11:34;6.23;;;5.63;;
1206;SDS011;593;53.184;8.216;2022-10-28T05:14:00;7.57;;;6.30;;
1206;SDS011;593;53.184;8.216;2022-10-28T05:16:25;6.97;;;6.20;;
1206;SDS011;593;53.184;8.216;2022-10-28T05:18:50;6.43;;;5.83;;
1206;SDS011;593;53.184;8.216;2022-10-28T05:21:16;8.00;;;6.40;;
1206;SDS011;593;53.184;8.216;2022-10-28T05:23:41;7.40;;;6.47;;
1206;SDS011;593;53.184;8.216;2022-10-28T05:26:06;10.07;;;6.43;;
1206;SDS011;593;53.184;8.216;2022-10-28T05:28:32;8.83;;;6.07;;
1206;SDS011;593;53.184;8.216;2022-10-28T05:30:57;6.00;;;5.50;;
1206;SDS011;593;53.184;8.216;2022-10-28T05:33:23;6.77;;;5.93;;
1206;SDS011;593;53.184;8.216;2022-10-28T05:35:48;9.97;;;6.27;;
1206;SDS011;593;53.184;8.216;2022-10-28T05:38:14;9.93;;;6.00;;
1206;SDS011;593;53.184;8.216;2022-10-28T05:40:39;7.43;;;5.50;;
1206;SDS011;593;53.184;8.216;2022-10-28T05:43:05;6.03;;;5.13;;
1206;SDS011;593;53.184;8.216;2022-10-28T05:45:30;9.50;;;5.20;;
1206;SDS011;593;53.184;8.216;2022-10-28T05:47:56;8.13;;;5.83;;
1206;SDS011;593;53.184;8.216;2022-10-28T05:50:21;10.43;;;5.60;;
1206;SDS011;593;53.184;8.216;2022-10-28T05:52:47;7.57;;;6.97;;
1206;SDS011;593;53.184;8.216;2022-10-28T05:55:14;8.03;;;5.67;;
1206;SDS011;593;53.184;8.216;2022-10-28T05:57:43;8.20;;;5.87;;
1206;SDS011;593;53.184;8.216;2022-10-28T06:00:09;7.80;;;4.90;;
1206;SDS011;593;53.184;8.216;2022-10-28T06:02:35;7.13;;;5.80;;
1206;SDS011;593;53.184;8.216;2022-10-28T06:05:01;7.07;;;6.13;;
1206;SDS011;593;53.184;8.216;2022-10-28T06:07:27;7.53;;;6.00;;
1206;SDS011;593;53.184;8.216;2022-10-28T06:09:53;5.87;;;5.30;;
1206;SDS011;593;53.184;8.216;2022-10-28T06:12:18;8.30;;;5.83;;
1206;SDS011;593;53.184;8.216;2022-10-28T06:14:44;6.77;;;6.00;;
1206;SDS011;593;53.184;8.216;2022-10-28T06:17:09;6.20;;;5.53;;
1206;SDS011;593;53.184;8.216;2022-10-28T06:19:34;8.57;;;6.43;;
1206;SDS011;593;53.184;8.216;2022-10-28T06:22:00;7.40;;;4.90;;
1206;SDS011;593;53.184;8.216;2022-10-28T06:24:25;9.70;;;5.97;;
1206;SDS011;593;53.184;8.216;2022-10-28T06:26:50;7.97;;;5.50;;
1206;SDS011;593;53.184;8.216;2022-10-28T06:29:16;5.77;;;5.13;;
1206;SDS011;593;53.184;8.216;2022-10-28T06:31:41;10.23;;;5.47;;
1206;SDS011;593;53.184;8.216;2022-10-28T06:34:10;6.10;;;5.50;;
1206;SDS011;593;53.184;8.216;2022-10-28T06:36:36;6.57;;;5.77;;
1206;SDS011;593;53.184;8.216;2022-10-28T06:39:02;5.97;;;5.10;;
1206;SDS011;593;53.184;8.216;2022-10-28T06:41:27;6.83;;;4.80;;
1206;SDS011;593;53.184;8.216;2022-10-28T06:43:52;6.30;;;5.70;;
1206;SDS011;593;53.184;8.216;2022-10-28T06:46:18;7.63;;;5.60;;
1206;SDS011;593;53.184;8.216;2022-10-28T06:48:43;11.43;;;5.80;;
1206;SDS011;593;53.184;8.216;2022-10-28T06:51:09;6.77;;;4.63;;
1206;SDS011;593;53.184;8.216;2022-10-28T06:53:34;7.20;;;5.90;;
1206;SDS011;593;53.184;8.216;2022-10-28T06:55:59;6.70;;;5.70;;
1206;SDS011;593;53.184;8.216;2022-10-28T06:58:25;6.43;;;5.80;;
1206;SDS011;593;53.184;8.216;2022-10-28T07:00:50;6.00;;;5.40;;
1206;SDS011;593;53.184;8.216;2022-10-28T07:03:17;6.80;;;5.40;;
1206;SDS011;593;53.184;8.216;2022-10-28T07:05:45;6.30;;;5.33;;
1206;SDS011;593;53.184;8.216;2022-10-28T07:08:13;9.57;;;5.50;;
1206;SDS011;593;53.184;8.216;2022-10-28T07:10:38;9.57;;;6.47;;
1206;SDS011;593;53.184;8.216;2022-10-28T07:13:04;10.43;;;6.07;;
1206;SDS011;593;53.184;8.216;2022-10-28T07:15:29;12.50;;;6.70;;
1206;SDS011;593;53.184;8.216;2022-10-28T07:17:55;7.63;;;5.90;;
1206;SDS011;593;53.184;8.216;2022-10-28T07:20:23;7.23;;;5.80;;
1206;SDS011;593;53.184;8.216;2022-10-28T07:22:55;6.63;;;4.93;;
1206;SDS011;593;53.184;8.216;2022-10-28T07:25:22;6.20;;;5.20;;
1206;SDS011;593;53.184;8.216;2022-10-28T07:27:47;5.40;;;4.90;;
1206;SDS011;593;53.184;8.216;2022-10-28T07:30:12;6.57;;;5.90;;
1206;SDS011;593;53.184;8.216;2022-10-28T07:32:38;6.80;;;5.77;;
1206;SDS011;593;53.184;8.216;2022-10-28T07:35:03;7.40;;;5.30;;
1206;SDS011;593;53.184;8.216;2022-10-28T07:37:29;5.40;;;4.90;;
1206;SDS011;593;53.184;8.216;2022-10-28T07:39:54;8.63;;;6.00;;
1206;SDS011;593;53.184;8.216;2022-10-28T07:42:19;7.80;;;5.63;;
1206;SDS011;593;53.184;8.216;2022-10-28T07:44:45;6.17;;;5.57;;
1206;SDS011;593;53.184;8.216;2022-10-28T07:47:10;8.20;;;5.20;;
1206;SDS011;593;53.184;8.216;2022-10-28T07:49:35;6.70;;;6.00;;
1206;SDS011;593;53.184;8.216;2022-10-28T07:52:01;12.00;;;5.87;;
1206;SDS011;593;53.184;8.216;2022-10-28T07:54:26;6.50;;;4.90;;
1206;SDS011;593;53.184;8.216;2022-10-28T07:56:52;7.30;;;6.50;;
1206;SDS011;593;53.184;8.216;2022-10-28T07:59:18;7.10;;;6.30;;
1206;SDS011;593;53.184;8.216;2022-10-28T08:01:44;11.50;;;7.57;;
1206;SDS011;593;53.184;8.216;2022-10-28T08:04:10;8.00;;;5.60;;
1206;SDS011;593;53.184;8.216;2022-10-28T08:06:36;6.90;;;6.20;;
1206;SDS011;593;53.184;8.216;2022-10-28T08:09:01;10.93;;;6.27;;
1206;SDS011;593;53.184;8.216;2022-10-28T08:11:27;8.27;;;5.63;;
1206;SDS011;593;53.184;8.216;2022-10-28T08:13:52;5.77;;;5.20;;
1206;SDS011;593;53.184;8.216;2022-10-28T08:16:19;8.17;;;5.70;;
1206;SDS011;593;53.184;8.216;2022-10-28T08:18:44;9.03;;;5.20;;
1206;SDS011;593;53.184;8.216;2022-10-28T08:21:10;6.07;;;5.47;;
1206;SDS011;593;53.184;8.216;2022-10-28T08:23:36;7.40;;;5.40;;
1206;SDS011;593;53.184;8.216;2022-10-28T08:26:02;8.43;;;5.83;;
1206;SDS011;593;53.184;8.216;2022-10-28T08:28:28;7.27;;;5.57;;
1206;SDS011;593;53.184;8.216;2022-10-28T08:30:58;6.77;;;5.10;;
1206;SDS011;593;53.184;8.216;2022-10-28T08:33:24;8.17;;;5.60;;
1206;SDS011;593;53.184;8.216;2022-10-28T08:35:50;10.80;;;5.77;;
1206;SDS011;593;53.184;8.216;2022-10-28T08:38:15;10.97;;;5.90;;
1206;SDS011;593;53.184;8.216;2022-10-28T08:43:50;8.00;;;5.67;;
1206;SDS011;593;53.184;8.216;2022-10-28T08:46:20;7.43;;;5.30;;
1206;SDS011;593;53.184;8.216;2022-10-28T08:48:47;8.13;;;5.63;;
1206;SDS011;593;53.184;8.216;2022-10-28T08:53:43;7.73;;;5.67;;
1206;SDS011;593;53.184;8.216;2022-10-28T08:56:14;8.70;;;5.63;;
1206;SDS011;593;53.184;8.216;2022-10-28T08:58:47;6.60;;;5.20;;
1206;SDS011;593;53.184;8.216;2022-10-28T09:01:15;5.90;;;5.30;;
1206;SDS011;593;53.184;8.216;2022-10-28T09:03:45;6.70;;;5.20;;
1206;SDS011;593;53.184;8.216;2022-10-28T09:06:14;8.07;;;4.67;;
1206;SDS011;593;53.184;8.216;2022-10-28T09:08:40;7.10;;;4.93;;
1206;SDS011;593;53.184;8.216;2022-10-28T09:16:46;6.40;;;4.30;;
1206;SDS011;593;53.184;8.216;2022-10-28T09:22:26;6.03;;;4.60;;
1206;SDS011;593;53.184;8.216;2022-10-28T09:25:05;9.93;;;4.57;;
1206;SDS011;593;53.184;8.216;2022-10-28T09:30:27;10.23;;;4.80;;
1206;SDS011;593;53.184;8.216;2022-10-28T09:33:04;9.90;;;5.43;;
1206;SDS011;593;53.184;8.216;2022-10-28T09:36:02;9.93;;;4.80;;
1206;SDS011;593;53.184;8.216;2022-10-28T09:38:30;7.13;;;4.57;;
1206;SDS011;593;53.184;8.216;2022-10-28T09:41:03;8.67;;;4.60;;
1206;SDS011;593;53.184;8.216;2022-10-28T09:43:35;9.33;;;4.00;;
1206;SDS011;593;53.184;8.216;2022-10-28T09:46:05;5.33;;;3.70;;
1206;SDS011;593;53.184;8.216;2022-10-28T09:48:43;7.90;;;4.63;;
1206;SDS011;593;53.184;8.216;2022-10-28T09:51:32;5.87;;;4.10;;
1206;SDS011;593;53.184;8.216;2022-10-28T09:54:07;8.43;;;4.07;;
1206;SDS011;593;53.184;8.216;2022-10-28T09:56:34;5.77;;;4.13;;
1206;SDS011;593;53.184;8.216;2022-10-28T09:59:00;4.23;;;3.83;;
1206;SDS011;593;53.184;8.216;2022-10-28T10:01:28;7.83;;;4.47;;
1206;SDS011;593;53.184;8.216;2022-10-28T10:03:58;10.87;;;3.90;;
1206;SDS011;593;53.184;8.216;2022-10-28T10:06:30;8.00;;;3.77;;
1206;SDS011;593;53.184;8.216;2022-10-28T10:08:59;4.80;;;3.83;;
1206;SDS011;593;53.184;8.216;2022-10-28T10:11:33;8.87;;;3.43;;
1206;SDS011;593;53.184;8.216;2022-10-28T10:14:06;6.50;;;3.90;;
1206;SDS011;593;53.184;8.216;2022-10-28T10:16:43;6.40;;;3.70;;
1206;SDS011;593;53.184;8.216;2022-10-28T10:19:12;6.80;;;3.03;;
1206;SDS011;593;53.184;8.216;2022-10-28T10:26:50;5.53;;;2.90;;
1206;SDS011;593;53.184;8.216;2022-10-28T10:29:16;9.03;;;4.33;;
1206;SDS011;593;53.184;8.216;2022-10-28T10:31:42;4.77;;;3.83;;
1206;SDS011;593;53.184;8.216;2022-10-28T10:34:20;11.43;;;4.13;;
1206;SDS011;593;53.184;8.216;2022-10-28T10:36:48;4.30;;;3.70;;
1206;SDS011;593;53.184;8.216;2022-10-28T10:39:21;4.60;;;3.53;;
1206;SDS011;593;53.184;8.216;2022-10-28T10:41:51;5.33;;;3.93;;
1206;SDS011;593;53.184;8.216;2022-10-28T10:46:44;8.40;;;4.00;;
1206;SDS011;593;53.184;8.216;2022-10-28T10:49:13;8.90;;;3.17;;
1206;SDS011;593;53.184;8.216;2022-10-28T10:52:24;8.93;;;4.10;;
1206;SDS011;593;53.184;8.216;2022-10-28T10:54:39;4.90;;;4.40;;
1206;SDS011;593;53.184;8.216;2022-10-28T10:57:18;5.37;;;4.00;;
1206;SDS011;593;53.184;8.216;2022-10-28T10:59:46;8.10;;;5.10;;
1206;SDS011;593;53.184;8.216;2022-10-28T11:02:20;12.40;;;5.03;;
1206;SDS011;593;53.184;8.216;2022-10-28T11:04:52;9.80;;;4.50;;
1206;SDS011;593;53.184;8.216;2022-10-28T11:07:21;12.87;;;5.13;;
1206;SDS011;593;53.184;8.216;2022-10-28T11:09:47;6.70;;;3.60;;
1206;SDS011;593;53.184;8.216;2022-10-28T11:14:57;4.10;;;3.70;;
1206;SDS011;593;53.184;8.216;2022-10-28T11:17:26;7.37;;;4.60;;
1206;SDS011;593;53.184;8.216;2022-10-28T11:19:54;8.07;;;4.60;;
1206;SDS011;593;53.184;8.216;2022-10-28T11:22:37;6.80;;;4.20;;
1206;SDS011;593;53.184;8.216;2022-10-28T11:30:20;5.47;;;3.80;;
1206;SDS011;593;53.184;8.216;2022-10-28T11:33:02;6.53;;;4.07;;
1206;SDS011;593;53.184;8.216;2022-10-28T11:38:24;11.03;;;3.60;;
1206;SDS011;593;53.184;8.216;2022-10-28T11:41:17;11.70;;;4.03;;
1206;SDS011;593;53.184;8.216;2022-10-28T11:43:50;4.53;;;4.13;;
1206;SDS011;593;53.184;8.216;2022-10-28T11:54:31;6.13;;;4.13;;
1206;SDS011;593;53.184;8.216;2022-10-28T11:57:11;6.97;;;4.10;;
1206;SDS011;593;53.184;8.216;2022-10-28T11:59:59;5.73;;;4.43;;
1206;SDS011;593;53.184;8.216;2022-10-28T12:05:20;5.47;;;4.70;;
1206;SDS011;593;53.184;8.216;2022-10-28T12:08:04;8.10;;;3.77;;
1206;SDS011;593;53.184;8.216;2022-10-28T12:10:44;9.13;;;5.07;;
1206;SDS011;593;53.184;8.216;2022-10-28T12:16:10;4.80;;;3.13;;
1206;SDS011;593;53.184;8.216;2022-10-28T12:18:47;6.77;;;3.40;;
1206;SDS011;593;53.184;8.216;2022-10-28T12:21:26;4.40;;;3.40;;
1206;SDS011;593;53.184;8.216;2022-10-28T12:23:57;7.20;;;4.30;;
1206;SDS011;593;53.184;8.216;2022-10-28T12:26:34;5.00;;;3.50;;
1206;SDS011;593;53.184;8.216;2022-10-28T12:29:08;7.47;;;4.20;;
1206;SDS011;593;53.184;8.216;2022-10-28T12:31:42;11.27;;;3.90;;
1206;SDS011;593;53.184;8.216;2022-10-28T12:34:18;6.93;;;3.60;;
1206;SDS011;593;53.184;8.216;2022-10-28T12:36:55;4.27;;;2.87;;
1206;SDS011;593;53.184;8.216;2022-10-28T12:39:47;7.80;;;3.23;;
1206;SDS011;593;53.184;8.216;2022-10-28T12:42:22;6.30;;;3.90;;
1206;SDS011;593;53.184;8.216;2022-10-28T12:44:49;4.77;;;3.60;;
1206;SDS011;593;53.184;8.216;2022-10-28T12:47:29;10.20;;;4.33;;
1206;SDS011;593;53.184;8.216;2022-10-28T13:00:54;4.63;;;3.50;;
1206;SDS011;593;53.184;8.216;2022-10-28T13:03:24;8.33;;;3.63;;
1206;SDS011;593;53.184;8.216;2022-10-28T13:08:37;4.83;;;3.53;;
1206;SDS011;593;53.184;8.216;2022-10-28T13:16:37;6.40;;;3.03;;
1206;SDS011;593;53.184;8.216;2022-10-28T13:24:21;8.70;;;4.13;;
1206;SDS011;593;53.184;8.216;2022-10-28T13:26:52;6.63;;;3.70;;
1206;SDS011;593;53.184;8.216;2022-10-28T13:29:22;3.30;;;2.90;;
1206;SDS011;593;53.184;8.216;2022-10-28T13:31:50;8.43;;;3.70;;
1206;SDS011;593;53.184;8.216;2022-10-28T13:34:18;6.20;;;3.77;;
1206;SDS011;593;53.184;8.216;2022-10-28T13:36:50;6.97;;;3.30;;
1206;SDS011;593;53.184;8.216;2022-10-28T13:52:34;4.67;;;3.70;;
1206;SDS011;593;53.184;8.216;2022-10-28T13:57:59;8.43;;;3.83;;
1206;SDS011;593;53.184;8.216;2022-10-28T14:02:56;9.00;;;3.93;;
1206;SDS011;593;53.184;8.216;2022-10-28T14:05:25;6.50;;;3.70;;
1206;SDS011;593;53.184;8.216;2022-10-28T14:08:18;5.53;;;3.03;;
1206;SDS011;593;53.184;8.216;2022-10-28T14:13:49;4.07;;;3.00;;
1206;SDS011;593;53.184;8.216;2022-10-28T14:16:39;7.23;;;4.00;;
1206;SDS011;593;53.184;8.216;2022-10-28T14:19:05;8.20;;;3.40;;
1206;SDS011;593;53.184;8.216;2022-10-28T14:21:45;10.80;;;3.50;;
1206;SDS011;593;53.184;8.216;2022-10-28T14:24:34;9.43;;;5.00;;
1206;SDS011;593;53.184;8.216;2022-10-28T14:29:29;8.27;;;4.30;;
1206;SDS011;593;53.184;8.216;2022-10-28T14:31:55;8.47;;;3.80;;
1206;SDS011;593;53.184;8.216;2022-10-28T14:36:55;6.77;;;3.97;;
1206;SDS011;593;53.184;8.216;2022-10-28T14:42:19;5.40;;;3.67;;
1206;SDS011;593;53.184;8.216;2022-10-28T14:45:19;5.27;;;4.73;;
1206;SDS011;593;53.184;8.216;2022-10-28T14:50:45;4.63;;;3.70;;
1206;SDS011;593;53.184;8.216;2022-10-28T14:53:16;5.63;;;4.10;;
1206;SDS011;593;53.184;8.216;2022-10-28T14:55:46;9.60;;;4.47;;
1206;SDS011;593;53.184;8.216;2022-10-28T14:58:19;7.57;;;3.83;;
1206;SDS011;593;53.184;8.216;2022-10-28T15:03:42;8.67;;;4.40;;
1206;SDS011;593;53.184;8.216;2022-10-28T15:06:31;3.80;;;3.13;;
1206;SDS011;593;53.184;8.216;2022-10-28T15:09:02;8.50;;;3.43;;
1206;SDS011;593;53.184;8.216;2022-10-28T15:11:42;8.60;;;4.80;;
1206;SDS011;593;53.184;8.216;2022-10-28T15:16:55;6.10;;;4.37;;
1206;SDS011;593;53.184;8.216;2022-10-28T15:19:22;4.60;;;3.20;;
1206;SDS011;593;53.184;8.216;2022-10-28T15:24:39;4.57;;;3.60;;
1206;SDS011;593;53.184;8.216;2022-10-28T15:27:05;10.20;;;4.07;;
1206;SDS011;593;53.184;8.216;2022-10-28T15:29:30;6.57;;;4.07;;
1206;SDS011;593;53.184;8.216;2022-10-28T15:34:53;9.63;;;4.40;;
1206;SDS011;593;53.184;8.216;2022-10-28T15:37:19;5.77;;;4.00;;
1206;SDS011;593;53.184;8.216;2022-10-28T15:39:50;5.50;;;3.90;;
1206;SDS011;593;53.184;8.216;2022-10-28T15:42:51;8.77;;;4.33;;
1206;SDS011;593;53.184;8.216;2022-10-28T15:45:17;7.03;;;4.37;;
1206;SDS011;593;53.184;8.216;2022-10-28T15:47:44;6.00;;;4.30;;
1206;SDS011;593;53.184;8.216;2022-10-28T15:52:40;5.70;;;4.23;;
1206;SDS011;593;53.184;8.216;2022-10-28T15:55:39;8.83;;;5.27;;
1206;SDS011;593;53.184;8.216;2022-10-28T15:58:00;4.63;;;4.17;;
1206;SDS011;593;53.184;8.216;2022-10-28T16:00:31;11.13;;;4.50;;
1206;SDS011;593;53.184;8.216;2022-10-28T16:02:59;7.37;;;5.20;;
1206;SDS011;593;53.184;8.216;2022-10-28T16:07:57;7.07;;;3.53;;
1206;SDS011;593;53.184;8.216;2022-10-28T16:10:24;7.23;;;4.93;;
1206;SDS011;593;53.184;8.216;2022-10-28T16:12:53;8.83;;;4.20;;
1206;SDS011;593;53.184;8.216;2022-10-28T16:15:18;6.80;;;4.27;;
1206;SDS011;593;53.184;8.216;2022-10-28T16:17:45;12.60;;;4.67;;
1206;SDS011;593;53.184;8.216;2022-10-28T16:20:14;7.20;;;4.90;;
1206;SDS011;593;53.184;8.216;2022-10-28T16:22:43;9.70;;;4.77;;
1206;SDS011;593;53.184;8.216;2022-10-28T16:25:13;6.73;;;5.30;;
1206;SDS011;593;53.184;8.216;2022-10-28T16:27:38;10.03;;;5.27;;
1206;SDS011;593;53.184;8.216;2022-10-28T16:30:04;10.90;;;4.40;;
1206;SDS011;593;53.184;8.216;2022-10-28T16:32:37;12.00;;;6.10;;
1206;SDS011;593;53.184;8.216;2022-10-28T16:35:14;7.20;;;4.80;;
1206;SDS011;593;53.184;8.216;2022-10-28T16:37:42;9.77;;;4.50;;
1206;SDS011;593;53.184;8.216;2022-10-28T16:40:08;6.27;;;4.27;;
1206;SDS011;593;53.184;8.216;2022-10-28T16:42:35;6.23;;;3.87;;
1206;SDS011;593;53.184;8.216;2022-10-28T16:45:01;11.70;;;4.90;;
1206;SDS011;593;53.184;8.216;2022-10-28T16:47:30;5.63;;;4.27;;
1206;SDS011;593;53.184;8.216;2022-10-28T16:49:56;7.10;;;4.30;;
1206;SDS011;593;53.184;8.216;2022-10-28T16:52:22;12.80;;;4.90;;
1206;SDS011;593;53.184;8.216;2022-10-28T16:54:49;8.23;;;4.50;;
1206;SDS011;593;53.184;8.216;2022-10-28T16:57:16;6.17;;;4.93;;
1206;SDS011;593;53.184;8.216;2022-10-28T16:59:43;11.97;;;5.10;;
1206;SDS011;593;53.184;8.216;2022-10-28T17:02:30;5.23;;;4.40;;
1206;SDS011;593;53.184;8.216;2022-10-28T17:04:58;9.60;;;5.80;;
1206;SDS011;593;53.184;8.216;2022-10-28T17:07:24;6.60;;;4.73;;
1206;SDS011;593;53.184;8.216;2022-10-28T17:09:50;9.87;;;5.20;;
1206;SDS011;593;53.184;8.216;2022-10-28T17:12:17;10.20;;;4.50;;
1206;SDS011;593;53.184;8.216;2022-10-28T17:14:44;7.63;;;5.00;;
1206;SDS011;593;53.184;8.216;2022-10-28T17:17:10;11.10;;;5.43;;
1206;SDS011;593;53.184;8.216;2022-10-28T17:19:36;9.03;;;5.10;;
1206;SDS011;593;53.184;8.216;2022-10-28T17:22:02;10.83;;;5.70;;
1206;SDS011;593;53.184;8.216;2022-10-28T17:24:27;7.80;;;4.77;;
1206;SDS011;593;53.184;8.216;2022-10-28T17:26:53;7.53;;;4.63;;
1206;SDS011;593;53.184;8.216;2022-10-28T17:29:18;7.20;;;4.70;;
1206;SDS011;593;53.184;8.216;2022-10-28T17:31:43;12.53;;;6.93;;
1206;SDS011;593;53.184;8.216;2022-10-28T17:34:09;5.67;;;4.63;;
1206;SDS011;593;53.184;8.216;2022-10-28T17:36:35;7.53;;;4.57;;
1206;SDS011;593;53.184;8.216;2022-10-28T17:39:00;9.00;;;4.43;;
1206;SDS011;593;53.184;8.216;2022-10-28T17:41:26;7.13;;;5.27;;
1206;SDS011;593;53.184;8.216;2022-10-28T17:43:51;7.80;;;5.40;;
1206;SDS011;593;53.184;8.216;2022-10-28T17:46:18;9.50;;;5.37;;
1206;SDS011;593;53.184;8.216;2022-10-28T17:48:44;7.40;;;5.43;;
1206;SDS011;593;53.184;8.216;2022-10-28T17:51:09;10.63;;;5.60;;
1206;SDS011;593;53.184;8.216;2022-10-28T17:53:35;7.60;;;5.20;;
1206;SDS011;593;53.184;8.216;2022-10-28T17:56:01;8.27;;;5.00;;
1206;SDS011;593;53.184;8.216;2022-10-28T17:58:29;6.87;;;5.67;;
1206;SDS011;593;53.184;8.216;2022-10-28T18:00:58;12.53;;;5.53;;
1206;SDS011;593;53.184;8.216;2022-10-28T18:03:25;6.67;;;5.40;;
1206;SDS011;593;53.184;8.216;2022-10-28T18:05:52;12.17;;;5.83;;
1206;SDS011;593;53.184;8.216;2022-10-28T18:08:17;7.23;;;5.23;;
1206;SDS011;593;53.184;8.216;2022-10-28T18:10:55;9.17;;;5.43;;
1206;SDS011;593;53.184;8.216;2022-10-28T18:13:27;13.70;;;5.57;;
1206;SDS011;593;53.184;8.216;2022-10-28T18:15:54;9.60;;;5.83;;
1206;SDS011;593;53.184;8.216;2022-10-28T18:18:20;9.50;;;5.23;;